Time;durP1;ratioP1;P1;durP2;ratioP2;P2;SDS_P1;SDS_P2;PMS_P1;PMS_P2;Temp;Humidity;BMP_temperature;BMP_pressure;BME280_temperature;BME280_humidity;BME280_pressure;Samples;Min_cycle;Max_cycle;Signal;HPM_P1;HPM_P2
2023/08/13 00:01:05;;;;;;;5.53;4.97;;;22.00;99.90;;;;;;5042355;28;20244;-52
2023/08/13 00:03:32;;;;;;;6.10;4.70;;;22.00;99.90;;;;;;5043141;28;20241;-51
2023/08/13 00:05:59;;;;;;;4.90;4.50;;;22.00;99.90;;;;;;5033691;28;20199;-52
2023/08/13 00:08:26;;;;;;;7.73;3.90;;;22.00;99.90;;;;;;5033824;28;20199;-51
2023/08/13 00:10:52;;;;;;;4.30;4.00;;;22.00;99.90;;;;;;5029684;28;20206;-51
2023/08/13 00:13:21;;;;;;;5.33;4.93;;;22.00;99.90;;;;;;5038421;28;20684;-52
2023/08/13 00:15:48;;;;;;;5.33;4.70;;;22.00;99.90;;;;;;5031088;28;20202;-52
2023/08/13 00:18:15;;;;;;;5.57;5.27;;;22.00;99.90;;;;;;5038799;28;20198;-51
2023/08/13 00:20:42;;;;;;;4.20;3.90;;;22.00;99.90;;;;;;5039252;28;20293;-52
2023/08/13 00:23:09;;;;;;;4.63;4.23;;;22.00;99.90;;;;;;5029602;28;20230;-51
2023/08/13 00:25:36;;;;;;;5.63;4.10;;;21.90;99.90;;;;;;5032151;28;20203;-52
2023/08/13 00:28:02;;;;;;;4.67;4.37;;;21.80;99.90;;;;;;5032095;28;20202;-51
2023/08/13 00:30:31;;;;;;;4.23;4.03;;;21.80;99.90;;;;;;5038681;28;20664;-51
2023/08/13 00:33:01;;;;;;;5.00;4.60;;;21.80;99.90;;;;;;5052606;28;20242;-52
2023/08/13 00:35:28;;;;;;;4.33;4.10;;;21.80;99.90;;;;;;5050564;28;20274;-52
2023/08/13 00:37:55;;;;;;;5.43;4.00;;;21.70;99.90;;;;;;5032188;28;20211;-52
2023/08/13 00:40:21;;;;;;;4.10;3.97;;;21.70;99.90;;;;;;5031462;28;20203;-52
2023/08/13 00:42:48;;;;;;;4.30;4.10;;;21.60;99.90;;;;;;5042684;28;20226;-52
2023/08/13 00:45:15;;;;;;;4.30;4.00;;;21.60;99.90;;;;;;5054746;28;20198;-52
2023/08/13 00:47:45;;;;;;;3.70;3.40;;;21.60;99.90;;;;;;5048704;28;20203;-52
2023/08/13 00:50:12;;;;;;;3.50;3.37;;;21.50;99.90;;;;;;5034485;28;20622;-52
2023/08/13 00:52:40;;;;;;;3.83;3.70;;;21.50;99.90;;;;;;5041663;28;20230;-52
2023/08/13 00:55:08;;;;;;;3.97;3.70;;;21.40;99.90;;;;;;5037479;28;20248;-51
2023/08/13 00:57:35;;;;;;;5.27;4.13;;;21.40;99.90;;;;;;5031575;28;20672;-52
2023/08/13 01:00:02;;;;;;;4.20;3.90;;;21.40;99.90;;;;;;5045441;28;20202;-52
2023/08/13 01:02:30;;;;;;;3.37;3.27;;;21.40;99.90;;;;;;5054030;28;20225;-52
2023/08/13 01:04:59;;;;;;;3.57;3.37;;;21.30;99.90;;;;;;5041569;28;20201;-52
2023/08/13 01:07:33;;;;;;;4.10;3.83;;;21.30;99.90;;;;;;5042325;28;20288;-52
2023/08/13 01:10:09;;;;;;;4.97;4.57;;;21.20;99.90;;;;;;5040839;28;20252;-51
2023/08/13 01:12:42;;;;;;;4.83;4.43;;;21.20;99.90;;;;;;5042173;28;20221;-52
2023/08/13 01:15:14;;;;;;;4.13;3.87;;;21.20;99.90;;;;;;5031559;28;20205;-52
2023/08/13 01:17:43;;;;;;;4.40;4.10;;;21.20;99.90;;;;;;5032650;28;20229;-52
2023/08/13 01:20:15;;;;;;;3.77;3.47;;;21.20;99.90;;;;;;5033915;28;20245;-52
2023/08/13 01:22:48;;;;;;;4.73;3.63;;;21.10;99.90;;;;;;5040128;28;20221;-52
2023/08/13 01:25:15;;;;;;;4.20;3.77;;;21.10;99.90;;;;;;5039862;28;20686;-51
2023/08/13 01:27:50;;;;;;;4.00;3.83;;;21.10;99.90;;;;;;5047797;28;20202;-52
2023/08/13 01:30:23;;;;;;;4.47;4.10;;;21.10;99.90;;;;;;5044009;28;20198;-52
2023/08/13 01:32:55;;;;;;;4.47;4.07;;;21.10;99.90;;;;;;5035249;28;20223;-52
2023/08/13 01:35:24;;;;;;;4.93;4.60;;;21.00;99.90;;;;;;5053950;28;20767;-52
2023/08/13 01:37:53;;;;;;;3.97;3.77;;;21.00;99.90;;;;;;5047983;28;20198;-52
2023/08/13 01:40:21;;;;;;;5.30;4.83;;;20.90;99.90;;;;;;5040069;28;20202;-52
2023/08/13 01:42:47;;;;;;;5.50;4.30;;;20.90;99.90;;;;;;5038044;28;20308;-52
2023/08/13 01:45:14;;;;;;;4.53;4.13;;;20.90;99.90;;;;;;5042062;28;20347;-52
2023/08/13 01:47:41;;;;;;;3.77;3.67;;;20.90;99.90;;;;;;5033845;28;20206;-51
2023/08/13 01:50:09;;;;;;;3.70;3.50;;;20.90;99.90;;;;;;5030599;28;20203;-51
2023/08/13 01:52:36;;;;;;;5.17;4.73;;;20.90;99.90;;;;;;5029331;28;20759;-51
2023/08/13 01:55:06;;;;;;;5.50;5.10;;;20.90;99.90;;;;;;5033732;28;20260;-51
2023/08/13 01:57:33;;;;;;;5.23;4.73;;;20.80;99.90;;;;;;5036761;28;20218;-51
2023/08/13 02:00:00;;;;;;;4.70;4.37;;;20.80;99.90;;;;;;5033350;28;20237;-51
2023/08/13 02:02:27;;;;;;;4.93;4.53;;;20.80;99.90;;;;;;5030263;28;20234;-51
2023/08/13 02:04:54;;;;;;;4.30;4.13;;;20.80;99.90;;;;;;5033264;28;20203;-52
2023/08/13 02:07:21;;;;;;;4.87;4.47;;;20.70;99.90;;;;;;5030767;28;20202;-51
2023/08/13 02:09:48;;;;;;;5.13;4.73;;;20.80;99.90;;;;;;5037398;28;20198;-52
2023/08/13 02:12:16;;;;;;;5.10;4.80;;;20.80;99.90;;;;;;5037367;28;20217;-52
2023/08/13 02:14:43;;;;;;;7.43;4.47;;;20.80;99.90;;;;;;5036692;28;20198;-52
2023/08/13 02:17:12;;;;;;;6.30;4.90;;;20.90;99.90;;;;;;5040382;28;20801;-52
2023/08/13 02:19:40;;;;;;;4.00;3.70;;;20.90;99.90;;;;;;5049189;28;20198;-51
2023/08/13 02:22:07;;;;;;;3.43;3.20;;;20.90;99.90;;;;;;5043152;28;20321;-52
2023/08/13 02:24:34;;;;;;;4.50;3.90;;;20.90;99.90;;;;;;5048167;28;20222;-51
2023/08/13 02:27:01;;;;;;;4.37;3.67;;;20.80;99.90;;;;;;5045060;28;20257;-51
2023/08/13 02:29:29;;;;;;;4.50;3.90;;;20.70;99.90;;;;;;5044634;28;20202;-51
2023/08/13 02:31:56;;;;;;;5.27;4.10;;;20.70;99.90;;;;;;5046166;28;20229;-52
2023/08/13 02:34:23;;;;;;;4.83;4.07;;;20.70;99.90;;;;;;5036946;28;20194;-51
2023/08/13 02:36:50;;;;;;;5.33;4.47;;;20.70;99.90;;;;;;5035389;28;20253;-51
2023/08/13 02:39:17;;;;;;;4.90;4.60;;;20.60;99.90;;;;;;5029280;28;20595;-52
2023/08/13 02:41:44;;;;;;;5.37;4.97;;;20.60;99.90;;;;;;5039652;28;20219;-51
2023/08/13 02:44:11;;;;;;;5.03;4.77;;;20.50;99.90;;;;;;5036206;28;20277;-51
2023/08/13 02:46:39;;;;;;;5.70;4.90;;;20.50;99.90;;;;;;5033343;28;20198;-51
2023/08/13 02:49:06;;;;;;;5.00;4.70;;;20.50;99.90;;;;;;5027205;28;20211;-52
2023/08/13 02:51:34;;;;;;;6.63;4.57;;;20.50;99.90;;;;;;5035039;28;20199;-52
2023/08/13 02:54:01;;;;;;;5.13;4.80;;;20.50;99.90;;;;;;5041900;28;20203;-52
2023/08/13 02:56:28;;;;;;;5.07;4.77;;;20.50;99.90;;;;;;5052322;28;20201;-51
2023/08/13 02:58:55;;;;;;;5.77;5.47;;;20.50;99.90;;;;;;5038773;28;20203;-51
2023/08/13 03:01:22;;;;;;;5.93;5.53;;;20.50;99.90;;;;;;5044719;28;20202;-51
2023/08/13 03:03:52;;;;;;;5.33;4.87;;;20.40;99.90;;;;;;5051982;28;20776;-51
2023/08/13 03:06:20;;;;;;;4.23;4.00;;;20.30;99.90;;;;;;5052619;28;20205;-51
2023/08/13 03:08:47;;;;;;;4.13;3.83;;;20.40;99.90;;;;;;5040603;28;20260;-50
2023/08/13 03:11:13;;;;;;;4.43;4.13;;;20.30;99.90;;;;;;5028994;28;20743;-50
2023/08/13 03:13:40;;;;;;;3.80;3.60;;;20.30;99.90;;;;;;5039706;28;20222;-51
2023/08/13 03:16:07;;;;;;;4.47;4.17;;;20.30;99.90;;;;;;5031685;28;20197;-50
2023/08/13 03:18:34;;;;;;;4.90;4.00;;;20.30;99.90;;;;;;5040078;28;20252;-50
2023/08/13 03:21:03;;;;;;;4.20;3.90;;;20.20;99.90;;;;;;5035059;28;20252;-50
2023/08/13 03:23:32;;;;;;;3.67;3.47;;;20.20;99.90;;;;;;5042222;28;20217;-51
2023/08/13 03:25:59;;;;;;;3.23;3.13;;;20.10;99.90;;;;;;5038523;28;20202;-50
2023/08/13 03:28:26;;;;;;;6.47;3.23;;;20.10;99.90;;;;;;5031018;28;20203;-50
2023/08/13 03:30:59;;;;;;;3.83;3.53;;;20.10;99.90;;;;;;5032474;28;20202;-51
2023/08/13 03:33:26;;;;;;;5.47;4.93;;;20.10;99.90;;;;;;5028866;28;20592;-51
2023/08/13 03:35:53;;;;;;;3.83;3.40;;;20.10;99.90;;;;;;5031100;28;20260;-50
2023/08/13 03:38:21;;;;;;;3.67;3.37;;;20.10;99.90;;;;;;5031889;28;20637;-51
2023/08/13 03:40:48;;;;;;;3.43;3.33;;;20.10;99.90;;;;;;5032329;28;20203;-51
2023/08/13 03:43:15;;;;;;;4.03;3.67;;;20.10;99.90;;;;;;5032098;28;20600;-50
2023/08/13 03:45:43;;;;;;;4.03;3.73;;;20.10;99.90;;;;;;5032553;28;20260;-51
2023/08/13 03:48:09;;;;;;;3.50;3.33;;;20.00;99.90;;;;;;5028126;28;20199;-51
2023/08/13 03:50:41;;;;;;;3.83;3.10;;;20.00;99.90;;;;;;5037521;28;20313;-51
2023/08/13 03:53:09;;;;;;;3.03;2.93;;;20.00;99.90;;;;;;5011416;28;20302;-51
2023/08/13 03:55:38;;;;;;;5.27;4.83;;;19.90;99.90;;;;;;5011943;28;20199;-51
2023/08/13 03:58:05;;;;;;;3.63;3.33;;;19.90;99.90;;;;;;5011905;28;20207;-51
2023/08/13 04:00:32;;;;;;;3.37;3.27;;;19.90;99.90;;;;;;5018646;28;20206;-51
2023/08/13 04:03:01;;;;;;;4.07;3.83;;;19.90;99.90;;;;;;5034164;28;20304;-50
2023/08/13 04:05:28;;;;;;;4.27;2.90;;;19.90;99.90;;;;;;5027698;28;20265;-51
2023/08/13 04:07:54;;;;;;;3.70;3.50;;;19.90;99.90;;;;;;5032981;28;20588;-51
2023/08/13 04:10:21;;;;;;;3.67;3.57;;;19.90;99.90;;;;;;5051172;28;20208;-51
2023/08/13 04:12:50;;;;;;;3.73;3.43;;;19.80;99.90;;;;;;5029896;28;20226;-51
2023/08/13 04:15:17;;;;;;;3.67;3.47;;;19.80;99.90;;;;;;5038021;28;20210;-51
2023/08/13 04:17:44;;;;;;;3.77;3.43;;;19.70;99.90;;;;;;5042816;28;20224;-51
2023/08/13 04:20:12;;;;;;;4.20;4.00;;;19.70;99.90;;;;;;5051012;28;20202;-51
2023/08/13 04:22:39;;;;;;;4.80;4.37;;;19.70;99.90;;;;;;5037090;28;20218;-50
2023/08/13 04:25:08;;;;;;;3.77;3.47;;;19.80;99.90;;;;;;5042121;28;20268;-51
2023/08/13 04:27:35;;;;;;;4.17;3.90;;;19.80;99.90;;;;;;5037521;28;20198;-51
2023/08/13 04:30:04;;;;;;;4.80;3.97;;;19.70;99.90;;;;;;5039132;28;20198;-51
2023/08/13 04:32:31;;;;;;;18.80;4.53;;;19.70;99.90;;;;;;5029739;28;20226;-51
2023/08/13 04:34:59;;;;;;;4.97;4.57;;;19.70;99.90;;;;;;5028721;28;20222;-51
2023/08/13 04:37:26;;;;;;;4.50;4.10;;;19.70;99.90;;;;;;5045121;28;20198;-50
2023/08/13 04:39:53;;;;;;;3.87;3.57;;;19.80;99.90;;;;;;5039096;28;20206;-51
2023/08/13 04:42:20;;;;;;;3.90;3.63;;;19.80;99.90;;;;;;5028105;28;20222;-51
2023/08/13 04:44:47;;;;;;;3.63;3.43;;;19.90;99.90;;;;;;5038819;28;20560;-51
2023/08/13 04:47:15;;;;;;;4.57;4.30;;;19.90;99.90;;;;;;5038036;28;20844;-51
2023/08/13 04:49:42;;;;;;;5.27;4.40;;;20.00;99.90;;;;;;5038027;28;20202;-52
2023/08/13 04:52:09;;;;;;;3.83;3.63;;;20.10;99.90;;;;;;5050489;28;20256;-51
2023/08/13 04:54:36;;;;;;;5.60;3.70;;;20.20;99.90;;;;;;5044501;28;20258;-51
2023/08/13 04:57:03;;;;;;;4.73;3.60;;;20.40;99.90;;;;;;5029060;28;20195;-51
2023/08/13 04:59:30;;;;;;;3.50;3.27;;;20.60;99.90;;;;;;5030485;28;20211;-51
2023/08/13 05:01:57;;;;;;;3.47;2.87;;;20.80;99.90;;;;;;5030511;28;20301;-51
2023/08/13 05:04:26;;;;;;;3.47;3.37;;;20.90;99.90;;;;;;5030459;28;20223;-51
2023/08/13 05:06:53;;;;;;;3.40;3.23;;;21.10;99.90;;;;;;5030809;28;20282;-51
2023/08/13 05:09:20;;;;;;;3.80;3.50;;;21.20;99.90;;;;;;5034403;28;20198;-51
2023/08/13 05:11:47;;;;;;;3.30;3.10;;;21.20;99.90;;;;;;5032737;28;20288;-51
2023/08/13 05:14:14;;;;;;;4.10;3.67;;;21.30;99.90;;;;;;5037177;28;20815;-51
2023/08/13 05:16:41;;;;;;;3.17;3.07;;;21.70;99.90;;;;;;5030694;28;20206;-52
2023/08/13 05:19:08;;;;;;;2.90;2.80;;;22.40;99.90;;;;;;5034107;28;20573;-52
2023/08/13 05:21:37;;;;;;;3.63;3.47;;;23.30;99.90;;;;;;5034131;28;20229;-51
2023/08/13 05:24:04;;;;;;;2.87;2.73;;;24.10;99.90;;;;;;5033663;28;20653;-52
2023/08/13 05:26:31;;;;;;;2.90;2.70;;;24.80;99.90;;;;;;5030416;28;20206;-51
2023/08/13 05:28:58;;;;;;;3.20;3.00;;;25.40;99.90;;;;;;5034013;28;20256;-52
2023/08/13 05:31:25;;;;;;;2.50;2.40;;;25.90;99.90;;;;;;5032021;28;20206;-52
2023/08/13 05:33:53;;;;;;;2.90;2.43;;;26.20;99.90;;;;;;5039719;28;20195;-52
2023/08/13 05:36:20;;;;;;;2.90;2.60;;;26.70;99.90;;;;;;5040369;28;20202;-51
2023/08/13 05:38:49;;;;;;;3.07;2.97;;;27.00;99.90;;;;;;5042744;28;20203;-52
2023/08/13 05:41:16;;;;;;;3.47;3.17;;;27.30;99.90;;;;;;5041328;28;20202;-52
2023/08/13 05:43:43;;;;;;;2.85;2.75;;;27.40;99.90;;;;;;5040086;28;20366;-52
2023/08/13 05:46:10;;;;;;;2.50;2.40;;;27.40;99.90;;;;;;5033553;28;20745;-52
2023/08/13 05:48:37;;;;;;;2.92;2.45;;;27.80;99.90;;;;;;5033695;28;20206;-52
2023/08/13 05:51:04;;;;;;;3.20;2.80;;;28.20;99.90;;;;;;5033386;28;20283;-53
2023/08/13 05:53:31;;;;;;;3.30;3.08;;;28.50;99.90;;;;;;5033469;28;20230;-52
2023/08/13 05:56:01;;;;;;;2.50;2.40;;;28.50;99.90;;;;;;5033743;28;20293;-52
2023/08/13 05:58:28;;;;;;;2.85;2.67;;;28.80;99.90;;;;;;5032751;28;20210;-52
2023/08/13 06:00:55;;;;;;;2.30;2.10;;;28.70;99.90;;;;;;5043374;28;20252;-51
2023/08/13 06:03:22;;;;;;;2.50;2.25;;;28.60;99.90;;;;;;5053074;28;20225;-51
2023/08/13 06:05:49;;;;;;;2.40;2.30;;;28.50;99.90;;;;;;5042151;28;20708;-52
2023/08/13 06:08:16;;;;;;;2.50;2.20;;;28.50;99.90;;;;;;5032446;28;20206;-52
2023/08/13 06:10:43;;;;;;;6.22;2.40;;;28.50;99.90;;;;;;5031358;28;20584;-52
2023/08/13 06:13:12;;;;;;;2.78;2.50;;;28.40;99.90;;;;;;5041365;28;20230;-53
2023/08/13 06:15:38;;;;;;;2.65;2.55;;;28.00;99.90;;;;;;5032279;28;20206;-53
2023/08/13 06:18:06;;;;;;;3.50;3.22;;;28.00;99.90;;;;;;5035223;28;20252;-52
2023/08/13 06:20:33;;;;;;;2.65;2.60;;;28.10;99.90;;;;;;5041008;28;20611;-52
2023/08/13 06:23:01;;;;;;;2.17;2.03;;;28.00;99.90;;;;;;5040301;28;20238;-52
2023/08/13 06:25:28;;;;;;;2.25;2.25;;;27.60;99.90;;;;;;5037787;28;20276;-53
2023/08/13 06:27:55;;;;;;;3.80;2.75;;;27.20;99.90;;;;;;5040542;28;20206;-52
2023/08/13 06:30:24;;;;;;;3.28;2.30;;;26.70;99.90;;;;;;5042865;28;20210;-53
2023/08/13 06:32:51;;;;;;;3.20;3.05;;;26.20;99.90;;;;;;5027148;28;20785;-53
2023/08/13 06:35:18;;;;;;;3.10;2.80;;;25.70;99.90;;;;;;5021836;28;20198;-53
2023/08/13 06:37:45;;;;;;;2.35;2.30;;;25.40;99.90;;;;;;5025911;28;20198;-52
2023/08/13 06:40:13;;;;;;;2.72;2.55;;;25.00;99.90;;;;;;5027726;28;20261;-53
2023/08/13 06:42:40;;;;;;;3.08;2.97;;;25.50;99.90;;;;;;5031272;28;20697;-52
2023/08/13 06:45:09;;;;;;;2.80;2.70;;;26.30;99.90;;;;;;5021162;28;20809;-54
2023/08/13 06:47:37;;;;;;;3.67;3.47;;;27.10;99.90;;;;;;5028341;28;20253;-52
2023/08/13 06:50:05;;;;;;;3.30;3.03;;;27.40;99.90;;;;;;5030971;28;20205;-52
2023/08/13 06:52:32;;;;;;;2.58;2.47;;;27.30;99.90;;;;;;5029285;28;20222;-53
2023/08/13 06:54:59;;;;;;;2.78;2.67;;;27.20;99.90;;;;;;5012607;28;20744;-53
2023/08/13 06:57:26;;;;;;;3.53;2.47;;;26.70;99.90;;;;;;5028890;28;20199;-52
2023/08/13 06:59:53;;;;;;;3.30;3.05;;;26.50;99.90;;;;;;5024239;28;20198;-53
2023/08/13 07:02:20;;;;;;;2.90;2.33;;;26.60;99.90;;;;;;5033903;28;20300;-52
2023/08/13 07:04:49;;;;;;;3.17;2.97;;;26.70;99.90;;;;;;5025236;28;20223;-52
2023/08/13 07:07:16;;;;;;;4.97;3.25;;;27.20;99.90;;;;;;5030143;28;20289;-52
2023/08/13 07:09:43;;;;;;;3.90;3.58;;;27.80;99.90;;;;;;5030171;28;20289;-53
2023/08/13 07:12:10;;;;;;;3.25;2.95;;;28.00;99.90;;;;;;5031707;28;20237;-52
2023/08/13 07:14:37;;;;;;;2.30;2.30;;;27.80;99.90;;;;;;5031169;28;20233;-52
2023/08/13 07:17:04;;;;;;;2.75;2.65;;;27.70;99.90;;;;;;5030883;28;20213;-53
2023/08/13 07:19:32;;;;;;;2.72;2.63;;;27.70;99.90;;;;;;5028479;28;20229;-52
2023/08/13 07:22:01;;;;;;;3.78;2.40;;;27.80;99.90;;;;;;5031119;28;20225;-52
2023/08/13 07:24:28;;;;;;;2.05;2.03;;;28.40;99.90;;;;;;5031784;28;20223;-52
2023/08/13 07:26:55;;;;;;;2.83;2.47;;;28.90;99.90;;;;;;5011589;28;20226;-53
2023/08/13 07:29:22;;;;;;;2.88;2.55;;;29.30;99.90;;;;;;5018214;28;20309;-53
2023/08/13 07:31:49;;;;;;;2.50;2.38;;;29.70;99.90;;;;;;5021278;28;20226;-52
2023/08/13 07:34:16;;;;;;;3.95;2.90;;;30.00;99.90;;;;;;5022975;28;20265;-53
2023/08/13 07:36:43;;;;;;;2.90;2.70;;;30.30;99.90;;;;;;5023018;28;20274;-53
2023/08/13 07:39:12;;;;;;;1.83;1.83;;;31.20;99.90;;;;;;5023400;28;20277;-51
2023/08/13 07:41:39;;;;;;;2.90;2.33;;;32.00;99.90;;;;;;5010309;28;20219;-54
2023/08/13 07:44:07;;;;;;;2.05;1.92;;;32.00;99.90;;;;;;5017483;28;20200;-54
2023/08/13 07:46:34;;;;;;;2.60;2.42;;;32.30;99.90;;;;;;5025061;28;20194;-54
2023/08/13 07:49:01;;;;;;;1.83;1.60;;;33.00;99.90;;;;;;5027097;28;20195;-54
2023/08/13 07:51:28;;;;;;;1.52;1.50;;;32.90;99.90;;;;;;5021739;28;20211;-54
2023/08/13 07:53:55;;;;;;;2.88;2.70;;;32.90;99.90;;;;;;5018164;28;20211;-55
2023/08/13 07:56:23;;;;;;;2.97;1.90;;;33.20;99.90;;;;;;5029675;28;20204;-54
2023/08/13 07:58:50;;;;;;;2.60;2.40;;;33.60;99.90;;;;;;5034170;28;20198;-54
2023/08/13 08:01:17;;;;;;;2.55;2.35;;;33.90;99.90;;;;;;5028500;28;20225;-55
2023/08/13 08:03:45;;;;;;;2.15;2.15;;;34.00;99.90;;;;;;5025304;28;20215;-55
2023/08/13 08:06:13;;;;;;;2.80;2.60;;;33.60;99.90;;;;;;5020110;28;20230;-54
2023/08/13 08:08:40;;;;;;;2.28;2.28;;;34.20;99.90;;;;;;5023692;28;20779;-54
2023/08/13 08:11:07;;;;;;;2.38;2.28;;;33.80;99.90;;;;;;5028266;28;20198;-54
2023/08/13 08:13:35;;;;;;;2.25;2.13;;;33.20;99.90;;;;;;5027623;28;20222;-55
2023/08/13 08:16:02;;;;;;;2.40;2.20;;;33.10;99.90;;;;;;5029643;28;20202;-55
2023/08/13 08:18:29;;;;;;;2.75;2.65;;;33.00;99.90;;;;;;5034130;28;20715;-55
2023/08/13 08:20:56;;;;;;;3.97;2.28;;;32.50;99.90;;;;;;5021126;28;20203;-54
2023/08/13 08:23:23;;;;;;;2.25;2.05;;;32.90;99.90;;;;;;5036542;28;20242;-55
2023/08/13 08:25:50;;;;;;;2.60;2.40;;;33.30;99.90;;;;;;5028845;28;20225;-54
2023/08/13 08:28:17;;;;;;;2.05;2.03;;;33.80;99.90;;;;;;5030423;28;20276;-54
2023/08/13 08:30:46;;;;;;;2.17;2.17;;;34.20;99.90;;;;;;5037746;28;20682;-54
2023/08/13 08:33:13;;;;;;;2.80;2.40;;;34.60;99.90;;;;;;5034687;28;20218;-54
2023/08/13 08:35:40;;;;;;;3.35;2.80;;;34.40;99.90;;;;;;5033578;28;20228;-54
2023/08/13 08:38:07;;;;;;;2.00;1.95;;;34.40;99.90;;;;;;5035584;28;20725;-54
2023/08/13 08:40:35;;;;;;;2.20;2.10;;;34.20;99.90;;;;;;5032588;28;20210;-54
2023/08/13 08:43:02;;;;;;;2.70;2.60;;;34.40;99.90;;;;;;5041281;28;20726;-54
2023/08/13 08:45:29;;;;;;;2.30;2.30;;;33.80;99.90;;;;;;5039910;28;20284;-54
2023/08/13 08:48:01;;;;;;;2.22;2.22;;;34.10;99.90;;;;;;5036357;28;20251;-55
2023/08/13 08:50:29;;;;;;;2.88;2.78;;;33.90;99.90;;;;;;5044157;28;20601;-55
2023/08/13 08:53:01;;;;;;;2.53;2.33;;;33.60;99.90;;;;;;5041321;28;20229;-55
2023/08/13 08:55:28;;;;;;;3.70;1.92;;;34.40;99.90;;;;;;5031746;28;20224;-54
2023/08/13 08:57:55;;;;;;;2.83;2.72;;;34.40;99.90;;;;;;5035627;28;20206;-55
2023/08/13 09:00:22;;;;;;;2.80;2.70;;;33.90;99.90;;;;;;5048220;28;20573;-54
2023/08/13 09:02:50;;;;;;;2.70;2.60;;;34.30;99.90;;;;;;5051365;28;20239;-55
2023/08/13 09:05:21;;;;;;;2.10;2.00;;;34.40;99.90;;;;;;5029811;28;20226;-54
2023/08/13 09:07:48;;;;;;;2.13;2.00;;;34.80;99.90;;;;;;5031871;28;20250;-54
2023/08/13 09:10:15;;;;;;;2.38;2.30;;;35.00;99.90;;;;;;5032595;28;20290;-54
2023/08/13 09:12:43;;;;;;;3.00;2.90;;;35.20;99.90;;;;;;5033590;28;20226;-55
2023/08/13 09:15:11;;;;;;;2.42;2.35;;;34.40;99.90;;;;;;5032379;28;20260;-54
2023/08/13 09:17:39;;;;;;;2.40;2.38;;;33.60;99.90;;;;;;5041713;28;20205;-54
2023/08/13 09:20:11;;;;;;;2.13;2.00;;;33.40;99.90;;;;;;5037913;28;20198;-54
2023/08/13 09:22:40;;;;;;;1.98;1.88;;;33.60;99.90;;;;;;5049450;28;20291;-55
2023/08/13 09:25:10;;;;;;;2.00;1.92;;;34.40;99.90;;;;;;5023578;28;20223;-55
2023/08/13 09:27:37;;;;;;;2.25;2.13;;;34.90;99.90;;;;;;5040173;28;20204;-55
2023/08/13 09:30:05;;;;;;;2.50;2.35;;;35.20;99.90;;;;;;5019708;28;20199;-55
2023/08/13 09:32:32;;;;;;;2.40;2.30;;;34.90;99.90;;;;;;5028821;28;20234;-55
2023/08/13 09:35:04;;;;;;;2.33;2.20;;;35.00;99.90;;;;;;5020404;28;20253;-55
2023/08/13 09:37:31;;;;;;;2.50;2.50;;;34.90;99.90;;;;;;5037389;28;20294;-54
2023/08/13 09:40:00;;;;;;;6.13;2.65;;;35.00;99.90;;;;;;5037229;28;20272;-55
2023/08/13 09:42:28;;;;;;;5.00;2.80;;;35.30;99.90;;;;;;5041838;28;20248;-55
2023/08/13 09:44:56;;;;;;;2.20;2.00;;;34.80;99.90;;;;;;5033739;28;22809;-55
2023/08/13 09:47:26;;;;;;;2.70;2.47;;;35.00;99.90;;;;;;5034066;28;20198;-55
2023/08/13 09:49:57;;;;;;;1.98;1.88;;;34.80;99.90;;;;;;5028319;28;20460;-59
2023/08/13 09:52:28;;;;;;;3.70;2.75;;;34.70;99.90;;;;;;5029499;28;20312;-55
2023/08/13 09:55:08;;;;;;;2.28;2.17;;;34.80;99.60;;;;;;5015440;28;20198;-55
2023/08/13 09:57:39;;;;;;;1.90;1.77;;;35.30;99.90;;;;;;5039022;28;20237;-55
2023/08/13 10:00:07;;;;;;;2.55;2.55;;;35.10;99.60;;;;;;5033644;28;20209;-55
2023/08/13 10:02:35;;;;;;;2.33;2.33;;;34.70;98.60;;;;;;5024893;28;20792;-54
2023/08/13 10:05:04;;;;;;;3.13;2.92;;;35.10;99.90;;;;;;5032998;28;20221;-54
2023/08/13 10:07:31;;;;;;;2.90;2.80;;;35.10;99.90;;;;;;5043223;28;20272;-54
2023/08/13 10:10:00;;;;;;;3.13;2.33;;;34.80;99.90;;;;;;5032863;28;20233;-54
2023/08/13 10:12:29;;;;;;;2.33;2.30;;;34.90;99.90;;;;;;5022369;28;20756;-54
2023/08/13 10:14:57;;;;;;;3.05;2.15;;;35.00;99.90;;;;;;5020182;28;20195;-54
2023/08/13 10:17:26;;;;;;;3.05;2.95;;;34.80;99.90;;;;;;5014100;28;20600;-54
2023/08/13 10:19:56;;;;;;;2.00;1.98;;;35.10;99.90;;;;;;5012111;28;20200;-53
2023/08/13 10:22:32;;;;;;;2.88;1.90;;;35.60;99.90;;;;;;5015746;28;20231;-53
2023/08/13 10:25:00;;;;;;;4.00;2.42;;;35.80;99.90;;;;;;5026955;28;20202;-54
2023/08/13 10:27:30;;;;;;;2.03;1.88;;;35.40;99.10;;;;;;5031948;28;20649;-54
2023/08/13 10:30:09;;;;;;;2.72;2.53;;;35.80;96.70;;;;;;5040214;28;20226;-54
2023/08/13 10:32:48;;;;;;;3.88;3.75;;;35.60;99.40;;;;;;5040773;28;20218;-54
2023/08/13 10:35:23;;;;;;;6.05;5.65;;;35.30;99.90;;;;;;5032812;28;20260;-54
2023/08/13 10:37:52;;;;;;;4.57;4.38;;;34.40;99.90;;;;;;5032679;28;20680;-54
2023/08/13 10:40:19;;;;;;;5.18;4.85;;;34.40;99.90;;;;;;5030422;28;20356;-53
2023/08/13 10:42:50;;;;;;;5.95;5.45;;;34.10;99.90;;;;;;5040347;28;20226;-53
2023/08/13 10:45:18;;;;;;;4.85;4.50;;;34.10;99.90;;;;;;5030974;28;20313;-54
2023/08/13 10:47:47;;;;;;;5.10;4.80;;;34.60;99.90;;;;;;5041076;28;20202;-54
2023/08/13 10:50:22;;;;;;;4.70;4.30;;;34.10;99.90;;;;;;5028892;28;20294;-54
2023/08/13 10:52:52;;;;;;;5.28;4.80;;;34.30;99.90;;;;;;5030030;28;20224;-54
2023/08/13 10:55:23;;;;;;;5.30;4.50;;;33.90;99.90;;;;;;5039833;28;20683;-52
2023/08/13 10:57:52;;;;;;;5.82;4.95;;;33.70;99.90;;;;;;5033776;28;20694;-51
2023/08/13 11:00:21;;;;;;;4.95;4.75;;;32.80;99.90;;;;;;5035156;28;20265;-51
2023/08/13 11:02:52;;;;;;;5.05;4.68;;;32.60;99.90;;;;;;5026043;28;20233;-51
2023/08/13 11:05:21;;;;;;;5.05;4.70;;;32.10;99.90;;;;;;5013362;28;20199;-51
2023/08/13 11:07:48;;;;;;;4.93;4.63;;;31.90;99.90;;;;;;5018491;28;20261;-51
2023/08/13 11:10:18;;;;;;;4.55;4.32;;;32.00;99.90;;;;;;5019182;28;20673;-51
2023/08/13 11:12:46;;;;;;;5.13;4.93;;;31.80;99.90;;;;;;5019045;28;20254;-50
2023/08/13 11:15:15;;;;;;;5.45;5.05;;;31.40;99.90;;;;;;5016793;28;20199;-51
2023/08/13 11:17:46;;;;;;;4.43;4.13;;;31.20;99.90;;;;;;5022445;28;20198;-51
2023/08/13 11:20:14;;;;;;;5.28;4.95;;;31.30;99.90;;;;;;5018064;28;20203;-51
2023/08/13 11:22:41;;;;;;;4.22;3.97;;;31.40;99.90;;;;;;5019789;28;20223;-52
2023/08/13 11:25:10;;;;;;;3.85;3.65;;;31.40;99.90;;;;;;5020844;28;20284;-51
2023/08/13 11:27:37;;;;;;;4.47;4.30;;;31.50;99.90;;;;;;5014578;28;20286;-52
2023/08/13 11:30:07;;;;;;;5.78;5.40;;;31.30;99.90;;;;;;5021633;28;20198;-51
2023/08/13 11:32:36;;;;;;;4.97;4.57;;;31.40;99.90;;;;;;5017627;28;20226;-51
2023/08/13 11:35:06;;;;;;;5.22;4.82;;;31.30;99.90;;;;;;5018289;28;20676;-51
2023/08/13 11:37:34;;;;;;;4.93;4.63;;;31.20;99.90;;;;;;5015966;28;20268;-51
2023/08/13 11:40:01;;;;;;;3.72;3.63;;;31.00;99.90;;;;;;5018081;28;20218;-52
2023/08/13 11:42:28;;;;;;;4.47;4.13;;;31.00;99.90;;;;;;5017518;28;20215;-52
2023/08/13 11:44:55;;;;;;;4.55;4.35;;;31.00;99.90;;;;;;5014734;28;20265;-51
2023/08/13 11:47:26;;;;;;;5.32;5.03;;;30.90;99.90;;;;;;5013084;28;20650;-51
2023/08/13 11:49:57;;;;;;;4.80;4.50;;;31.00;99.90;;;;;;5010649;28;20200;-51
2023/08/13 11:52:24;;;;;;;5.15;4.75;;;31.00;99.90;;;;;;5010606;28;20715;-52
2023/08/13 11:54:51;;;;;;;4.45;4.15;;;30.90;99.90;;;;;;5012748;28;20199;-52
2023/08/13 11:57:19;;;;;;;4.65;4.32;;;30.60;99.90;;;;;;5017497;28;20290;-51
2023/08/13 11:59:48;;;;;;;5.93;4.38;;;30.70;99.90;;;;;;5027962;28;20221;-51
2023/08/13 12:02:16;;;;;;;4.43;4.05;;;30.70;99.90;;;;;;5027435;28;20230;-52
2023/08/13 12:04:46;;;;;;;3.95;3.85;;;30.70;99.90;;;;;;5039508;28;20207;-51
2023/08/13 12:07:16;;;;;;;5.03;4.68;;;30.70;99.90;;;;;;5036772;28;20529;-51
2023/08/13 12:09:43;;;;;;;4.10;3.88;;;30.70;99.90;;;;;;5038401;28;20253;-52
2023/08/13 12:12:10;;;;;;;4.72;4.45;;;30.50;99.90;;;;;;5041261;28;20222;-51
2023/08/13 12:14:44;;;;;;;4.07;3.85;;;30.30;99.90;;;;;;5048784;28;20741;-52
2023/08/13 12:17:11;;;;;;;4.05;3.95;;;30.40;99.90;;;;;;5045614;28;20732;-52
2023/08/13 12:19:38;;;;;;;4.15;3.72;;;30.30;99.90;;;;;;5021694;28;20310;-51
2023/08/13 12:22:05;;;;;;;4.32;3.85;;;30.40;99.90;;;;;;5033227;28;20232;-52
2023/08/13 12:24:33;;;;;;;3.35;3.10;;;30.30;99.90;;;;;;5049212;28;20206;-51
2023/08/13 12:27:00;;;;;;;4.00;3.72;;;30.40;99.90;;;;;;5031964;28;20291;-52
2023/08/13 12:29:27;;;;;;;3.58;3.20;;;30.30;99.90;;;;;;5041116;28;20734;-51
2023/08/13 12:31:54;;;;;;;3.88;3.63;;;30.40;99.90;;;;;;5030001;28;20261;-51
2023/08/13 12:34:21;;;;;;;4.55;4.22;;;30.20;99.90;;;;;;5034780;28;20206;-52
2023/08/13 12:36:48;;;;;;;3.90;3.60;;;30.10;99.90;;;;;;5035074;28;20264;-51
2023/08/13 12:39:15;;;;;;;4.63;4.35;;;30.10;99.90;;;;;;5033367;28;20821;-51
2023/08/13 12:41:43;;;;;;;3.20;3.10;;;30.20;99.90;;;;;;5041821;28;20258;-51
2023/08/13 12:44:10;;;;;;;6.10;2.70;;;30.20;99.90;;;;;;5019560;28;20258;-51
2023/08/13 12:46:37;;;;;;;3.15;3.03;;;30.20;99.90;;;;;;5033749;28;20218;-51
2023/08/13 12:49:04;;;;;;;3.25;3.10;;;30.40;99.90;;;;;;5041513;28;20199;-52
2023/08/13 12:51:32;;;;;;;3.60;3.40;;;30.50;99.90;;;;;;5040836;28;20611;-52